Time,TemperatureF,DewpointF,PressureIn,WindDirection,WindDirectionDegrees,WindSpeedMPH,WindSpeedGustMPH,Humidity,HourlyPrecipIn,Conditions,Clouds,dailyrainin,SoftwareType,DateUTC
2013-07-12 00:00:00,61.0,58.4,29.96,SSE,151,0.0,1.0,91,0.00,,---,0.00,VWS V14.01,2013-07-12 04:00:00,
2013-07-12 00:05:00,60.9,58.3,29.96,SSE,150,0.0,0.0,91,0.00,,---,0.00,VWS V14.01,2013-07-12 04:05:00,
2013-07-12 00:15:00,60.7,58.1,29.96,SE,137,0.0,1.0,91,0.00,,---,0.00,VWS V14.01,2013-07-12 04:15:00,
2013-07-12 00:20:00,60.7,58.1,29.96,SE,137,0.0,0.0,91,0.00,,---,0.00,VWS V14.01,2013-07-12 04:20:00,
2013-07-12 00:25:00,60.7,58.1,29.96,SE,137,0.0,1.0,91,0.00,,---,0.00,VWS V14.01,2013-07-12 04:25:00,
2013-07-12 00:30:00,60.7,58.1,29.96,SE,137,0.0,0.0,91,0.00,,---,0.00,VWS V14.01,2013-07-12 04:30:00,
2013-07-12 00:35:00,60.6,58.0,29.96,SE,137,0.0,0.0,91,0.00,,---,0.00,VWS V14.01,2013-07-12 04:35:00,
2013-07-12 00:40:00,60.5,57.9,29.97,SE,137,0.0,0.0,91,0.00,,---,0.00,VWS V14.01,2013-07-12 04:40:00,
2013-07-12 00:45:00,60.3,57.7,29.97,SE,137,0.0,0.0,91,0.00,,---,0.00,VWS V14.01,2013-07-12 04:45:00,
2013-07-12 00:50:00,60.1,57.8,29.96,SE,137,0.0,0.0,92,0.00,,---,0.00,VWS V14.01,2013-07-12 04:50:00,
2013-07-12 00:55:00,60.0,57.4,29.96,SE,137,0.0,1.0,91,0.00,,---,0.00,VWS V14.01,2013-07-12 04:55:00,
2013-07-12 01:00:00,59.9,57.6,29.96,SE,137,0.0,0.0,92,0.00,,---,0.00,VWS V14.01,2013-07-12 05:00:00,
2013-07-12 01:05:00,59.8,57.5,29.96,SE,137,0.0,0.0,92,0.00,,---,0.00,VWS V14.01,2013-07-12 05:05:00,
2013-07-12 01:10:00,59.8,57.5,29.97,SE,137,0.0,1.0,92,0.00,,---,0.00,VWS V14.01,2013-07-12 05:10:00,
2013-07-12 01:15:00,59.7,57.4,29.97,SE,137,0.0,0.0,92,0.00,,---,0.00,VWS V14.01,2013-07-12 05:15:00,
2013-07-12 01:20:00,59.6,57.3,29.97,SE,137,0.0,0.0,92,0.00,,---,0.00,VWS V14.01,2013-07-12 05:20:00,
2013-07-12 01:25:00,59.4,57.1,29.97,SE,137,0.0,0.0,92,0.00,,---,0.00,VWS V14.01,2013-07-12 05:25:00,
2013-07-12 01:30:00,59.3,57.0,29.97,SE,137,0.0,0.0,92,0.00,,---,0.00,VWS V14.01,2013-07-12 05:30:00,
2013-07-12 01:35:00,59.2,56.9,29.97,SE,137,0.0,0.0,92,0.00,,---,0.00,VWS V14.01,2013-07-12 05:35:00,
2013-07-12 01:40:00,59.0,56.7,29.97,SE,137,0.0,1.0,92,0.00,,---,0.00,VWS V14.01,2013-07-12 05:40:00,
2013-07-12 01:45:00,59.0,56.7,29.98,SE,137,0.0,0.0,92,0.00,,---,0.00,VWS V14.01,2013-07-12 05:45:00,
2013-07-12 01:50:00,59.0,56.7,29.98,SE,137,0.0,1.0,92,0.00,,---,0.00,VWS V14.01,2013-07-12 05:50:00,
2013-07-12 01:55:00,59.0,56.7,29.98,SE,137,0.0,0.0,92,0.00,,---,0.00,VWS V14.01,2013-07-12 05:55:00,
2013-07-12 02:00:00,59.0,56.7,29.98,SE,137,0.0,0.0,92,0.00,,---,0.00,VWS V14.01,2013-07-12 06:00:00,
2013-07-12 02:10:00,59.0,56.7,29.98,SE,137,0.0,0.0,92,0.00,,---,0.00,VWS V14.01,2013-07-12 06:10:00,
2013-07-12 02:20:00,59.0,56.7,29.98,SE,137,0.0,1.0,92,0.00,,---,0.00,VWS V14.01,2013-07-12 06:20:00,
2013-07-12 02:25:00,59.0,56.7,29.98,SE,137,0.0,0.0,92,0.00,,---,0.00,VWS V14.01,2013-07-12 06:25:00,
2013-07-12 02:35:00,59.0,56.7,29.99,SE,137,0.0,0.0,92,0.00,,---,0.00,VWS V14.01,2013-07-12 06:35:00,
2013-07-12 02:40:00,59.0,56.7,29.99,SE,137,0.0,0.0,92,0.00,,---,0.00,VWS V14.01,2013-07-12 06:40:00,
2013-07-12 02:50:00,58.8,56.5,29.99,SE,137,0.0,1.0,92,0.00,,---,0.00,VWS V14.01,2013-07-12 06:50:00,
2013-07-12 02:55:00,58.6,56.3,29.99,SE,137,0.0,1.0,92,0.00,,---,0.00,VWS V14.01,2013-07-12 06:55:00,
2013-07-12 03:00:00,58.6,56.3,29.99,SE,137,0.0,1.0,92,0.00,,---,0.00,VWS V14.01,2013-07-12 07:00:00,
2013-07-12 03:05:00,58.5,56.2,29.99,SE,137,0.0,0.0,92,0.00,,---,0.00,VWS V14.01,2013-07-12 07:05:00,
2013-07-12 03:15:00,58.2,55.9,30.01,SE,137,0.0,0.0,92,0.00,,---,0.00,VWS V14.01,2013-07-12 07:15:00,
2013-07-12 03:20:00,58.1,55.8,30.01,SE,137,0.0,0.0,92,0.00,,---,0.00,VWS V14.01,2013-07-12 07:20:00,
2013-07-12 03:30:00,58.1,55.8,30.01,SE,137,0.0,1.0,92,0.00,,---,0.00,VWS V14.01,2013-07-12 07:30:00,
2013-07-12 03:35:00,58.0,55.7,30.01,SE,137,0.0,0.0,92,0.00,,---,0.00,VWS V14.01,2013-07-12 07:35:00,
2013-07-12 03:40:00,57.9,55.6,30.00,SE,137,0.0,0.0,92,0.00,,---,0.00,VWS V14.01,2013-07-12 07:40:00,
2013-07-12 03:45:00,57.9,55.6,30.01,SE,137,0.0,0.0,92,0.00,,---,0.00,VWS V14.01,2013-07-12 07:45:00,
2013-07-12 03:55:00,57.8,55.5,30.01,SE,132,0.0,1.0,92,0.00,,---,0.00,VWS V14.01,2013-07-12 07:55:00,
2013-07-12 04:00:00,57.7,55.4,30.02,SE,132,0.0,0.0,92,0.00,,---,0.00,VWS V14.01,2013-07-12 08:00:00,
2013-07-12 04:10:00,57.5,55.2,30.02,SE,132,0.0,0.0,92,0.00,,---,0.00,VWS V14.01,2013-07-12 08:10:00,
2013-07-12 04:15:00,57.4,55.1,30.02,SE,132,0.0,0.0,92,0.00,,---,0.00,VWS V14.01,2013-07-12 08:15:00,
2013-07-12 04:20:00,57.2,54.9,30.02,SE,132,0.0,0.0,92,0.00,,---,0.00,VWS V14.01,2013-07-12 08:20:00,
2013-07-12 04:30:00,57.0,54.7,30.02,SE,132,0.0,0.0,92,0.00,,---,0.00,VWS V14.01,2013-07-12 08:30:00,
2013-07-12 04:40:00,56.9,54.6,30.03,SE,132,0.0,0.0,92,0.00,,---,0.00,VWS V14.01,2013-07-12 08:40:00,
2013-07-12 04:50:00,57.0,55.0,30.03,SE,132,0.0,0.0,93,0.00,,---,0.00,VWS V14.01,2013-07-12 08:50:00,
2013-07-12 04:55:00,57.0,55.0,30.04,SE,132,0.0,0.0,93,0.00,,---,0.00,VWS V14.01,2013-07-12 08:55:00,
2013-07-12 05:00:00,57.0,55.0,30.04,SE,132,0.0,0.0,93,0.00,,---,0.00,VWS V14.01,2013-07-12 09:00:00,
2013-07-12 05:05:00,57.1,55.1,30.04,SE,132,0.0,0.0,93,0.00,,---,0.00,VWS V14.01,2013-07-12 09:05:00,
2013-07-12 05:15:00,57.2,55.2,30.04,SE,132,0.0,0.0,93,0.00,,---,0.00,VWS V14.01,2013-07-12 09:15:00,
2013-07-12 05:20:00,57.3,55.3,30.04,SE,132,0.0,1.0,93,0.00,,---,0.00,VWS V14.01,2013-07-12 09:20:00,
2013-07-12 05:25:00,57.4,55.4,30.05,SE,132,0.0,0.0,93,0.00,,---,0.00,VWS V14.01,2013-07-12 09:25:00,
2013-07-12 05:30:00,57.5,55.5,30.05,SE,132,0.0,0.0,93,0.00,,---,0.00,VWS V14.01,2013-07-12 09:30:00,
2013-07-12 05:35:00,57.7,55.7,30.05,SE,132,0.0,0.0,93,0.00,,---,0.00,VWS V14.01,2013-07-12 09:35:00,
2013-07-12 05:45:00,57.9,55.9,30.05,SE,132,0.0,1.0,93,0.00,,---,0.00,VWS V14.01,2013-07-12 09:45:00,
2013-07-12 05:50:00,58.0,56.0,30.06,SE,132,0.0,1.0,93,0.00,,---,0.00,VWS V14.01,2013-07-12 09:50:00,
2013-07-12 05:55:00,58.0,56.0,30.06,SE,132,0.0,0.0,93,0.00,,---,0.00,VWS V14.01,2013-07-12 09:55:00,
2013-07-12 06:00:00,58.1,56.1,30.06,SE,132,0.0,0.0,93,0.00,,---,0.00,VWS V14.01,2013-07-12 10:00:00,
2013-07-12 06:10:00,57.9,55.9,30.06,SE,132,0.0,0.0,93,0.00,,---,0.00,VWS V14.01,2013-07-12 10:10:00,
2013-07-12 06:20:00,57.8,55.8,30.07,SE,132,1.0,1.0,93,0.00,,---,0.00,VWS V14.01,2013-07-12 10:20:00,
2013-07-12 06:25:00,57.8,55.8,30.07,SE,132,0.0,1.0,93,0.00,,---,0.00,VWS V14.01,2013-07-12 10:25:00,
2013-07-12 06:30:00,57.9,55.9,30.07,SE,132,0.0,0.0,93,0.00,,---,0.00,VWS V14.01,2013-07-12 10:30:00,
2013-07-12 06:40:00,58.1,56.1,30.07,SE,132,0.0,0.0,93,0.00,,---,0.00,VWS V14.01,2013-07-12 10:40:00,
2013-07-12 06:45:00,58.2,56.2,30.07,SE,132,0.0,0.0,93,0.00,,---,0.00,VWS V14.01,2013-07-12 10:45:00,
2013-07-12 06:50:00,58.3,56.3,30.07,SE,132,0.0,0.0,93,0.00,,---,0.00,VWS V14.01,2013-07-12 10:50:00,
2013-07-12 07:00:00,59.0,57.0,30.07,SE,132,0.0,0.0,93,0.00,,---,0.00,VWS V14.01,2013-07-12 11:00:00,
2013-07-12 07:05:00,59.3,57.3,30.08,SE,132,0.0,0.0,93,0.00,,---,0.00,VWS V14.01,2013-07-12 11:05:00,
2013-07-12 07:10:00,59.8,57.8,30.08,SE,132,0.0,0.0,93,0.00,,---,0.00,VWS V14.01,2013-07-12 11:10:00,
2013-07-12 07:15:00,60.3,58.3,30.08,SE,132,0.0,0.0,93,0.00,,---,0.00,VWS V14.01,2013-07-12 11:15:00,
2013-07-12 07:25:00,60.8,58.8,30.08,SE,132,0.0,0.0,93,0.00,,---,0.00,VWS V14.01,2013-07-12 11:25:00,
2013-07-12 07:35:00,61.5,59.5,30.08,SE,132,0.0,0.0,93,0.00,,---,0.00,VWS V14.01,2013-07-12 11:35:00,
2013-07-12 07:40:00,62.0,60.0,30.09,SE,132,0.0,0.0,93,0.00,,---,0.00,VWS V14.01,2013-07-12 11:40:00,
2013-07-12 07:45:00,62.4,60.3,30.09,SE,132,0.0,0.0,93,0.00,,---,0.00,VWS V14.01,2013-07-12 11:45:00,
2013-07-12 07:55:00,63.2,60.8,30.09,SE,132,0.0,0.0,92,0.00,,---,0.00,VWS V14.01,2013-07-12 11:55:00,
2013-07-12 08:00:00,63.7,61.3,30.09,SE,132,0.0,0.0,92,0.00,,---,0.00,VWS V14.01,2013-07-12 12:00:00,
2013-07-12 08:05:00,64.3,61.3,30.10,SE,132,0.0,0.0,90,0.00,,---,0.00,VWS V14.01,2013-07-12 12:05:00,
2013-07-12 08:10:00,65.0,61.4,30.10,SE,132,1.0,1.0,88,0.00,,---,0.00,VWS V14.01,2013-07-12 12:10:00,
2013-07-12 08:20:00,65.9,60.9,30.10,SSE,168,1.0,2.0,84,0.00,,---,0.00,VWS V14.01,2013-07-12 12:20:00,
2013-07-12 08:30:00,66.3,61.3,30.10,WSW,246,0.0,1.0,84,0.00,,---,0.00,VWS V14.01,2013-07-12 12:30:00,
2013-07-12 08:40:00,67.2,61.2,30.10,WSW,246,0.0,1.0,81,0.00,,---,0.00,VWS V14.01,2013-07-12 12:40:00,
2013-07-12 08:45:00,67.9,60.8,30.10,WSW,254,0.0,2.0,78,0.00,,---,0.00,VWS V14.01,2013-07-12 12:45:00,
2013-07-12 08:55:00,69.0,60.4,30.10,WSW,254,0.0,2.0,74,0.00,,---,0.00,VWS V14.01,2013-07-12 12:55:00,
2013-07-12 09:00:00,70.1,59.5,30.10,SW,230,0.0,5.0,69,0.00,,---,0.00,VWS V14.01,2013-07-12 13:00:00,
2013-07-12 09:10:00,70.7,60.8,30.10,SW,230,0.0,3.0,71,0.00,,---,0.00,VWS V14.01,2013-07-12 13:10:00,
2013-07-12 09:20:00,72.1,60.1,30.11,South,184,0.0,1.0,66,0.00,,---,0.00,VWS V14.01,2013-07-12 13:20:00,
2013-07-12 09:25:00,73.1,60.2,30.11,SE,126,1.0,3.0,64,0.00,,---,0.00,VWS V14.01,2013-07-12 13:25:00,
2013-07-12 09:35:00,74.2,60.8,30.10,SSE,156,0.0,5.0,63,0.00,,---,0.00,VWS V14.01,2013-07-12 13:35:00,
2013-07-12 09:40:00,74.6,60.3,30.10,East,96,0.0,2.0,61,0.00,,---,0.00,VWS V14.01,2013-07-12 13:40:00,
2013-07-12 09:45:00,75.2,59.9,30.11,SSE,154,0.0,3.0,59,0.00,,---,0.00,VWS V14.01,2013-07-12 13:45:00,
2013-07-12 09:50:00,74.9,60.6,30.10,NE,54,2.0,3.0,61,0.00,,---,0.00,VWS V14.01,2013-07-12 13:50:00,
2013-07-12 10:00:00,75.6,59.3,30.10,South,171,0.0,3.0,57,0.00,,---,0.00,VWS V14.01,2013-07-12 14:00:00,
2013-07-12 10:10:00,75.5,60.2,30.11,SSE,157,0.0,3.0,59,0.00,,---,0.00,VWS V14.01,2013-07-12 14:10:00,
2013-07-12 10:15:00,76.3,60.5,30.11,SSE,161,0.0,3.0,58,0.00,,---,0.00,VWS V14.01,2013-07-12 14:15:00,
2013-07-12 10:20:00,76.9,59.5,30.11,SSE,163,0.0,1.0,55,0.00,,---,0.00,VWS V14.01,2013-07-12 14:20:00,
2013-07-12 10:30:00,76.5,59.7,30.11,SW,229,0.0,2.0,56,0.00,,---,0.00,VWS V14.01,2013-07-12 14:30:00,
2013-07-12 10:35:00,76.7,60.3,30.11,ENE,75,2.0,2.0,57,0.00,,---,0.00,VWS V14.01,2013-07-12 14:35:00,
2013-07-12 10:40:00,77.4,59.0,30.11,SSE,159,0.0,5.0,53,0.00,,---,0.00,VWS V14.01,2013-07-12 14:40:00,
2013-07-12 10:50:00,78.4,58.8,30.11,South,180,0.0,3.0,51,0.00,,---,0.00,VWS V14.01,2013-07-12 14:50:00,
2013-07-12 11:00:00,79.8,59.5,30.11,SSE,147,0.0,2.0,50,0.00,,---,0.00,VWS V14.01,2013-07-12 15:00:00,
2013-07-12 11:10:00,79.4,60.8,30.11,South,175,1.0,1.0,53,0.00,,---,0.00,VWS V14.01,2013-07-12 15:10:00,
2013-07-12 11:20:00,79.7,59.4,30.12,South,171,0.0,3.0,50,0.00,,---,0.00,VWS V14.01,2013-07-12 15:20:00,
2013-07-12 11:25:00,76.8,60.4,30.11,WNW,283,3.0,6.0,57,0.00,,---,0.00,VWS V14.01,2013-07-12 15:25:00,
2013-07-12 11:30:00,74.3,60.9,30.12,West,278,6.0,7.0,63,0.00,,---,0.00,VWS V14.01,2013-07-12 15:30:00,
2013-07-12 11:35:00,73.2,60.7,30.12,West,277,6.0,7.0,65,0.00,,---,0.00,VWS V14.01,2013-07-12 15:35:00,
2013-07-12 11:45:00,73.6,60.7,30.11,West,275,5.0,7.0,64,0.00,,---,0.00,VWS V14.01,2013-07-12 15:45:00,
2013-07-12 11:55:00,73.9,60.5,30.11,West,276,0.0,6.0,63,0.00,,---,0.00,VWS V14.01,2013-07-12 15:55:00,
2013-07-12 12:00:00,74.2,61.2,30.11,WNW,286,2.0,6.0,64,0.00,,---,0.00,VWS V14.01,2013-07-12 16:00:00,
2013-07-12 12:05:00,74.6,62.1,30.12,WNW,291,2.0,5.0,65,0.00,,---,0.00,VWS V14.01,2013-07-12 16:05:00,
2013-07-12 12:15:00,74.9,62.8,30.11,WNW,288,3.0,5.0,66,0.00,,---,0.00,VWS V14.01,2013-07-12 16:15:00,
2013-07-12 12:20:00,75.3,64.0,30.11,WNW,292,3.0,5.0,68,0.00,,---,0.00,VWS V14.01,2013-07-12 16:20:00,
2013-07-12 12:30:00,75.1,61.7,30.11,WNW,296,3.0,5.0,63,0.00,,---,0.00,VWS V14.01,2013-07-12 16:30:00,
2013-07-12 12:40:00,74.8,61.8,30.11,WNW,299,1.0,3.0,64,0.00,,---,0.00,VWS V14.01,2013-07-12 16:40:00,
2013-07-12 12:50:00,74.9,62.3,30.11,WNW,300,2.0,3.0,65,0.00,,---,0.00,VWS V14.01,2013-07-12 16:50:00,
2013-07-12 12:55:00,75.1,63.4,30.11,WNW,298,3.0,5.0,67,0.00,,---,0.00,VWS V14.01,2013-07-12 16:55:00,
2013-07-12 13:05:00,76.0,63.4,30.10,WNW,282,4.0,5.0,65,0.00,,---,0.00,VWS V14.01,2013-07-12 17:05:00,
2013-07-12 13:10:00,76.2,63.1,30.11,WNW,283,3.0,6.0,64,0.00,,---,0.00,VWS V14.01,2013-07-12 17:10:00,
2013-07-12 13:15:00,76.3,62.3,30.11,West,280,3.0,4.0,62,0.00,,---,0.00,VWS V14.01,2013-07-12 17:15:00,
2013-07-12 13:20:00,76.4,63.3,30.11,WNW,282,4.0,5.0,64,0.00,,---,0.00,VWS V14.01,2013-07-12 17:20:00,
2013-07-12 13:30:00,76.6,61.7,30.10,West,281,3.0,5.0,60,0.00,,---,0.00,VWS V14.01,2013-07-12 17:30:00,
2013-07-12 13:50:00,78.2,61.2,30.10,South,182,0.0,3.0,56,0.00,,---,0.00,VWS V14.01,2013-07-12 17:50:00,
2013-07-12 14:00:00,79.2,60.6,30.10,SSE,165,0.0,3.0,53,0.00,,---,0.00,VWS V14.01,2013-07-12 18:00:00,
2013-07-12 14:05:00,79.5,60.3,30.10,South,170,2.0,3.0,52,0.00,,---,0.00,VWS V14.01,2013-07-12 18:05:00,
2013-07-12 14:15:00,78.7,60.7,30.10,WSW,258,0.0,4.0,54,0.00,,---,0.00,VWS V14.01,2013-07-12 18:15:00,
2013-07-12 14:20:00,78.7,60.2,30.10,South,180,1.0,5.0,53,0.00,,---,0.00,VWS V14.01,2013-07-12 18:20:00,
2013-07-12 14:25:00,79.5,60.9,30.10,South,179,4.0,5.0,53,0.00,,---,0.00,VWS V14.01,2013-07-12 18:25:00,
2013-07-12 14:30:00,79.6,61.0,30.10,SW,224,0.0,4.0,53,0.00,,---,0.00,VWS V14.01,2013-07-12 18:30:00,
2013-07-12 14:35:00,80.1,59.2,30.10,South,178,0.0,2.0,49,0.00,,---,0.00,VWS V14.01,2013-07-12 18:35:00,
2013-07-12 14:40:00,80.1,59.2,30.10,SSE,162,0.0,5.0,49,0.00,,---,0.00,VWS V14.01,2013-07-12 18:40:00,
2013-07-12 14:50:00,80.1,60.4,30.10,West,261,4.0,6.0,51,0.00,,---,0.00,VWS V14.01,2013-07-12 18:50:00,
2013-07-12 15:00:00,81.1,60.7,30.10,WSW,253,0.0,5.0,50,0.00,,---,0.00,VWS V14.01,2013-07-12 19:00:00,
2013-07-12 15:10:00,80.9,61.1,30.10,SW,233,1.0,5.0,51,0.00,,---,0.00,VWS V14.01,2013-07-12 19:10:00,
2013-07-12 15:15:00,81.0,62.3,30.10,West,261,6.0,6.0,53,0.00,,---,0.00,VWS V14.01,2013-07-12 19:15:00,
2013-07-12 15:25:00,81.3,60.9,30.10,SSW,196,0.0,3.0,50,0.00,,---,0.00,VWS V14.01,2013-07-12 19:25:00,
2013-07-12 15:30:00,80.6,60.8,30.10,WSW,246,0.0,3.0,51,0.00,,---,0.00,VWS V14.01,2013-07-12 19:30:00,
2013-07-12 15:35:00,80.3,61.6,30.10,West,268,1.0,3.0,53,0.00,,---,0.00,VWS V14.01,2013-07-12 19:35:00,
2013-07-12 15:45:00,79.1,62.1,30.09,West,268,0.0,2.0,56,0.00,,---,0.00,VWS V14.01,2013-07-12 19:45:00,
2013-07-12 15:50:00,79.6,62.0,30.09,West,264,3.0,3.0,55,0.00,,---,0.00,VWS V14.01,2013-07-12 19:50:00,
2013-07-12 16:05:00,82.8,61.1,30.09,SSE,166,1.0,2.0,48,0.00,,---,0.00,VWS V14.01,2013-07-12 20:05:00,
2013-07-12 16:15:00,82.2,60.6,30.09,South,170,0.0,3.0,48,0.00,,---,0.00,VWS V14.01,2013-07-12 20:15:00,
2013-07-12 16:20:00,82.3,61.8,30.09,South,170,0.0,2.0,50,0.00,,---,0.00,VWS V14.01,2013-07-12 20:20:00,
2013-07-12 16:30:00,83.7,63.1,30.09,ENE,73,0.0,3.0,50,0.00,,---,0.00,VWS V14.01,2013-07-12 20:30:00,
2013-07-12 16:40:00,85.4,62.9,30.09,East,80,1.0,1.0,47,0.00,,---,0.00,VWS V14.01,2013-07-12 20:40:00,
2013-07-12 16:45:00,84.7,63.5,30.09,WSW,240,0.0,4.0,49,0.00,,---,0.00,VWS V14.01,2013-07-12 20:45:00,
2013-07-12 16:50:00,84.0,61.6,30.10,South,177,0.0,1.0,47,0.00,,---,0.00,VWS V14.01,2013-07-12 20:50:00,
2013-07-12 17:00:00,83.8,62.0,30.10,South,190,2.0,3.0,48,0.00,,---,0.00,VWS V14.01,2013-07-12 21:00:00,
2013-07-12 17:05:00,83.5,61.2,30.10,South,178,0.0,2.0,47,0.00,,---,0.00,VWS V14.01,2013-07-12 21:05:00,
2013-07-12 17:10:00,83.3,61.6,30.10,South,178,0.0,1.0,48,0.00,,---,0.00,VWS V14.01,2013-07-12 21:10:00,
2013-07-12 17:15:00,83.2,61.5,30.10,SSE,167,1.0,1.0,48,0.00,,---,0.00,VWS V14.01,2013-07-12 21:15:00,
2013-07-12 17:20:00,82.6,60.9,30.10,South,184,1.0,3.0,48,0.00,,---,0.00,VWS V14.01,2013-07-12 21:20:00,
2013-07-12 17:30:00,82.3,61.2,30.10,WSW,249,3.0,4.0,49,0.00,,---,0.00,VWS V14.01,2013-07-12 21:30:00,
2013-07-12 17:35:00,81.9,61.5,30.10,South,169,0.0,3.0,50,0.00,,---,0.00,VWS V14.01,2013-07-12 21:35:00,
2013-07-12 17:40:00,82.2,61.2,30.09,South,171,0.0,1.0,49,0.00,,---,0.00,VWS V14.01,2013-07-12 21:40:00,
2013-07-12 18:10:00,83.4,62.8,30.09,South,173,1.0,1.0,50,0.00,,---,0.00,VWS V14.01,2013-07-12 22:10:00,
2013-07-12 18:15:00,83.0,63.0,30.10,SSE,163,0.0,2.0,51,0.00,,---,0.00,VWS V14.01,2013-07-12 22:15:00,
2013-07-12 18:20:00,82.4,62.5,30.10,SSE,163,0.0,1.0,51,0.00,,---,0.00,VWS V14.01,2013-07-12 22:20:00,
2013-07-12 18:25:00,81.6,61.7,30.09,SSE,161,0.0,4.0,51,0.00,,---,0.00,VWS V14.01,2013-07-12 22:25:00,
2013-07-12 18:40:00,80.2,61.5,30.10,SE,136,0.0,2.0,53,0.00,,---,0.00,VWS V14.01,2013-07-12 22:40:00,
2013-07-12 18:45:00,79.9,61.8,30.10,SSE,149,0.0,3.0,54,0.00,,---,0.00,VWS V14.01,2013-07-12 22:45:00,
2013-07-12 18:50:00,79.6,62.0,30.10,SSE,151,1.0,1.0,55,0.00,,---,0.00,VWS V14.01,2013-07-12 22:50:00,
2013-07-12 19:00:00,79.3,66.1,30.10,SSE,150,0.0,1.0,64,0.00,,---,0.00,VWS V14.01,2013-07-12 23:00:00,
2013-07-12 19:10:00,78.4,67.0,30.10,SSE,151,0.0,0.0,68,0.00,,---,0.00,VWS V14.01,2013-07-12 23:10:00,
2013-07-12 19:15:00,77.9,66.9,30.10,SSE,151,0.0,1.0,69,0.00,,---,0.00,VWS V14.01,2013-07-12 23:15:00,
2013-07-12 19:25:00,77.3,67.2,30.10,SSE,151,0.0,0.0,71,0.00,,---,0.00,VWS V14.01,2013-07-12 23:25:00,
2013-07-12 19:30:00,77.0,66.9,30.10,SSE,151,0.0,1.0,71,0.00,,---,0.00,VWS V14.01,2013-07-12 23:30:00,
2013-07-12 19:40:00,76.1,66.0,30.10,SSE,150,0.0,1.0,71,0.00,,---,0.00,VWS V14.01,2013-07-12 23:40:00,
2013-07-12 19:45:00,75.7,66.4,30.11,SSE,151,0.0,1.0,73,0.00,,---,0.00,VWS V14.01,2013-07-12 23:45:00,
2013-07-12 19:50:00,75.3,66.4,30.11,SSE,150,0.0,0.0,74,0.00,,---,0.00,VWS V14.01,2013-07-12 23:50:00,
2013-07-12 20:10:00,73.4,65.8,30.11,SSE,151,0.0,0.0,77,0.00,,---,0.00,VWS V14.01,2013-07-13 00:10:00,
2013-07-12 20:15:00,72.9,65.7,30.12,SSE,150,0.0,0.0,78,0.00,,---,0.00,VWS V14.01,2013-07-13 00:15:00,
2013-07-12 20:25:00,72.0,65.1,30.12,SSE,150,0.0,0.0,79,0.00,,---,0.00,VWS V14.01,2013-07-13 00:25:00,
2013-07-12 20:30:00,71.6,65.1,30.12,SSE,150,0.0,0.0,80,0.00,,---,0.00,VWS V14.01,2013-07-13 00:30:00,
2013-07-12 20:35:00,71.3,65.2,30.12,SSE,151,0.0,1.0,81,0.00,,---,0.00,VWS V14.01,2013-07-13 00:35:00,
2013-07-12 20:40:00,70.8,64.3,30.13,SSE,148,0.0,1.0,80,0.00,,---,0.00,VWS V14.01,2013-07-13 00:40:00,
2013-07-12 20:45:00,70.5,64.0,30.13,SSE,149,0.0,1.0,80,0.00,,---,0.00,VWS V14.01,2013-07-13 00:45:00,
2013-07-12 20:50:00,70.4,63.9,30.14,SSE,148,0.0,2.0,80,0.00,,---,0.00,VWS V14.01,2013-07-13 00:50:00,
2013-07-12 21:00:00,70.2,63.8,30.14,SSE,148,0.0,1.0,80,0.00,,---,0.00,VWS V14.01,2013-07-13 01:00:00,
2013-07-12 21:10:00,69.8,63.7,30.15,SSE,148,0.0,0.0,81,0.00,,---,0.00,VWS V14.01,2013-07-13 01:10:00,
2013-07-12 21:15:00,69.6,63.9,30.15,SSE,148,0.0,0.0,82,0.00,,---,0.00,VWS V14.01,2013-07-13 01:15:00,
2013-07-12 21:25:00,69.1,63.7,30.15,SSE,148,0.0,0.0,83,0.00,,---,0.00,VWS V14.01,2013-07-13 01:25:00,
2013-07-12 21:30:00,68.7,63.3,30.16,SSE,148,0.0,0.0,83,0.00,,---,0.00,VWS V14.01,2013-07-13 01:30:00,
2013-07-12 21:40:00,68.0,63.0,30.16,SSE,148,0.0,0.0,84,0.00,,---,0.00,VWS V14.01,2013-07-13 01:40:00,
2013-07-12 21:50:00,67.7,63.0,30.16,SSE,148,0.0,0.0,85,0.00,,---,0.00,VWS V14.01,2013-07-13 01:50:00,
2013-07-12 21:55:00,67.6,62.9,30.16,SSE,148,0.0,0.0,85,0.00,,---,0.00,VWS V14.01,2013-07-13 01:55:00,
2013-07-12 22:00:00,67.4,62.7,30.16,SSE,148,0.0,0.0,85,0.00,,---,0.00,VWS V14.01,2013-07-13 02:00:00,
2013-07-12 22:10:00,67.0,62.3,30.16,SSE,148,0.0,0.0,85,0.00,,---,0.00,VWS V14.01,2013-07-13 02:10:00,
2013-07-12 22:20:00,66.6,62.3,30.17,SSE,148,0.0,0.0,86,0.00,,---,0.00,VWS V14.01,2013-07-13 02:20:00,
2013-07-12 22:25:00,66.5,62.2,30.17,SSE,148,0.0,0.0,86,0.00,,---,0.00,VWS V14.01,2013-07-13 02:25:00,
2013-07-12 22:30:00,66.3,62.0,30.17,SSE,148,0.0,0.0,86,0.00,,---,0.00,VWS V14.01,2013-07-13 02:30:00,
2013-07-12 22:35:00,66.2,61.9,30.17,SSE,148,0.0,1.0,86,0.00,,---,0.00,VWS V14.01,2013-07-13 02:35:00,
2013-07-12 22:40:00,66.1,61.8,30.17,SSE,148,0.0,0.0,86,0.00,,---,0.00,VWS V14.01,2013-07-13 02:40:00,
2013-07-12 22:45:00,65.9,61.9,30.17,SSE,148,0.0,0.0,87,0.00,,---,0.00,VWS V14.01,2013-07-13 02:45:00,
2013-07-12 22:50:00,65.8,61.8,30.17,SSE,148,0.0,0.0,87,0.00,,---,0.00,VWS V14.01,2013-07-13 02:50:00,
2013-07-12 23:00:00,65.5,61.5,30.17,SSE,148,0.0,0.0,87,0.00,,---,0.00,VWS V14.01,2013-07-13 03:00:00,
2013-07-12 23:10:00,65.0,61.0,30.19,SSE,148,0.0,0.0,87,0.00,,---,0.00,VWS V14.01,2013-07-13 03:10:00,
2013-07-12 23:20:00,64.8,60.8,30.19,SSE,148,0.0,1.0,87,0.00,,---,0.00,VWS V14.01,2013-07-13 03:20:00,
2013-07-12 23:30:00,64.4,60.8,30.19,SSE,148,0.0,0.0,88,0.00,,---,0.00,VWS V14.01,2013-07-13 03:30:00,
2013-07-12 23:35:00,64.3,60.7,30.19,SSE,148,0.0,0.0,88,0.00,,---,0.00,VWS V14.01,2013-07-13 03:35:00,
2013-07-12 23:45:00,64.0,60.4,30.19,SSE,148,0.0,0.0,88,0.00,,---,0.00,VWS V14.01,2013-07-13 03:45:00,
2013-07-12 23:50:00,63.8,60.2,30.19,SSE,148,0.0,1.0,88,0.00,,---,0.00,VWS V14.01,2013-07-13 03:50:00,
2013-07-12 23:55:00,63.7,60.1,30.19,SSE,148,0.0,0.0,88,0.00,,---,0.00,VWS V14.01,2013-07-13 03:55:00,